sensor_id;sensor_type;location;lat;lon;timestamp;P1;durP1;ratioP1;P2;durP2;ratioP2
83684;SDS011;73666;51.304;5.776;2023-10-31T00:01:29;4.63;;;2.25;;
83684;SDS011;73666;51.304;5.776;2023-10-31T00:06:30;2.78;;;2.30;;
83684;SDS011;73666;51.304;5.776;2023-10-31T00:11:30;6.53;;;2.47;;
83684;SDS011;73666;51.304;5.776;2023-10-31T00:16:32;4.35;;;2.40;;
83684;SDS011;73666;51.304;5.776;2023-10-31T00:21:32;2.35;;;1.80;;
83684;SDS011;73666;51.304;5.776;2023-10-31T00:26:33;2.03;;;1.73;;
83684;SDS011;73666;51.304;5.776;2023-10-31T00:31:34;4.32;;;1.77;;
83684;SDS011;73666;51.304;5.776;2023-10-31T00:36:35;3.70;;;1.95;;
83684;SDS011;73666;51.304;5.776;2023-10-31T00:41:35;7.65;;;2.17;;
83684;SDS011;73666;51.304;5.776;2023-10-31T00:46:36;3.92;;;2.40;;
83684;SDS011;73666;51.304;5.776;2023-10-31T00:51:37;4.72;;;2.15;;
83684;SDS011;73666;51.304;5.776;2023-10-31T00:56:41;3.45;;;2.35;;
83684;SDS011;73666;51.304;5.776;2023-10-31T01:01:42;4.57;;;2.83;;
83684;SDS011;73666;51.304;5.776;2023-10-31T01:06:43;5.32;;;3.22;;
83684;SDS011;73666;51.304;5.776;2023-10-31T01:11:44;6.93;;;4.20;;
83684;SDS011;73666;51.304;5.776;2023-10-31T01:16:45;6.47;;;4.40;;
83684;SDS011;73666;51.304;5.776;2023-10-31T01:21:45;9.25;;;4.18;;
83684;SDS011;73666;51.304;5.776;2023-10-31T01:26:46;7.78;;;4.20;;
83684;SDS011;73666;51.304;5.776;2023-10-31T01:31:47;8.07;;;4.50;;
83684;SDS011;73666;51.304;5.776;2023-10-31T01:36:48;8.82;;;4.80;;
83684;SDS011;73666;51.304;5.776;2023-10-31T01:41:48;6.35;;;4.15;;
83684;SDS011;73666;51.304;5.776;2023-10-31T01:46:49;8.25;;;4.63;;
83684;SDS011;73666;51.304;5.776;2023-10-31T01:51:50;7.45;;;4.25;;
83684;SDS011;73666;51.304;5.776;2023-10-31T01:56:51;5.60;;;3.95;;
83684;SDS011;73666;51.304;5.776;2023-10-31T02:01:56;6.43;;;4.32;;
83684;SDS011;73666;51.304;5.776;2023-10-31T02:06:57;8.07;;;4.00;;
83684;SDS011;73666;51.304;5.776;2023-10-31T02:11:58;6.63;;;3.60;;
83684;SDS011;73666;51.304;5.776;2023-10-31T02:16:59;5.00;;;3.40;;
83684;SDS011;73666;51.304;5.776;2023-10-31T02:21:59;5.50;;;3.58;;
83684;SDS011;73666;51.304;5.776;2023-10-31T02:27:00;5.25;;;3.55;;
83684;SDS011;73666;51.304;5.776;2023-10-31T02:32:03;5.20;;;3.13;;
83684;SDS011;73666;51.304;5.776;2023-10-31T02:37:04;5.25;;;3.35;;
83684;SDS011;73666;51.304;5.776;2023-10-31T02:42:05;5.13;;;3.30;;
83684;SDS011;73666;51.304;5.776;2023-10-31T02:47:06;6.28;;;3.67;;
83684;SDS011;73666;51.304;5.776;2023-10-31T02:52:07;7.63;;;4.15;;
83684;SDS011;73666;51.304;5.776;2023-10-31T02:57:08;6.68;;;4.13;;
83684;SDS011;73666;51.304;5.776;2023-10-31T03:02:10;7.28;;;4.00;;
83684;SDS011;73666;51.304;5.776;2023-10-31T03:07:11;9.13;;;4.53;;
83684;SDS011;73666;51.304;5.776;2023-10-31T03:12:12;7.53;;;4.10;;
83684;SDS011;73666;51.304;5.776;2023-10-31T03:17:13;6.55;;;3.72;;
83684;SDS011;73666;51.304;5.776;2023-10-31T03:22:14;5.22;;;3.30;;
83684;SDS011;73666;51.304;5.776;2023-10-31T03:27:15;8.38;;;4.45;;
83684;SDS011;73666;51.304;5.776;2023-10-31T03:32:15;8.00;;;4.28;;
83684;SDS011;73666;51.304;5.776;2023-10-31T03:37:16;9.48;;;4.13;;
83684;SDS011;73666;51.304;5.776;2023-10-31T03:42:18;6.05;;;3.83;;
83684;SDS011;73666;51.304;5.776;2023-10-31T03:47:20;5.22;;;3.30;;
83684;SDS011;73666;51.304;5.776;2023-10-31T03:52:21;5.03;;;3.20;;
83684;SDS011;73666;51.304;5.776;2023-10-31T03:57:21;5.95;;;3.60;;
83684;SDS011;73666;51.304;5.776;2023-10-31T04:02:22;5.18;;;3.42;;
83684;SDS011;73666;51.304;5.776;2023-10-31T04:07:23;6.97;;;3.63;;
83684;SDS011;73666;51.304;5.776;2023-10-31T04:12:24;5.55;;;3.42;;
83684;SDS011;73666;51.304;5.776;2023-10-31T04:17:24;4.97;;;3.42;;
83684;SDS011;73666;51.304;5.776;2023-10-31T04:22:25;6.78;;;3.58;;
83684;SDS011;73666;51.304;5.776;2023-10-31T04:27:26;5.18;;;2.92;;
83684;SDS011;73666;51.304;5.776;2023-10-31T04:32:27;5.55;;;2.63;;
83684;SDS011;73666;51.304;5.776;2023-10-31T04:37:28;4.95;;;3.08;;
83684;SDS011;73666;51.304;5.776;2023-10-31T04:42:29;5.25;;;3.35;;
83684;SDS011;73666;51.304;5.776;2023-10-31T04:47:31;4.32;;;3.30;;
83684;SDS011;73666;51.304;5.776;2023-10-31T04:52:32;8.15;;;4.15;;
83684;SDS011;73666;51.304;5.776;2023-10-31T04:57:33;6.50;;;4.30;;
83684;SDS011;73666;51.304;5.776;2023-10-31T05:02:33;7.53;;;4.47;;
83684;SDS011;73666;51.304;5.776;2023-10-31T05:07:34;8.27;;;4.22;;
83684;SDS011;73666;51.304;5.776;2023-10-31T05:12:35;6.60;;;4.28;;
83684;SDS011;73666;51.304;5.776;2023-10-31T05:22:37;6.97;;;5.25;;
83684;SDS011;73666;51.304;5.776;2023-10-31T05:27:40;6.90;;;4.45;;
83684;SDS011;73666;51.304;5.776;2023-10-31T05:32:41;8.60;;;4.50;;
83684;SDS011;73666;51.304;5.776;2023-10-31T05:37:41;7.70;;;5.22;;
83684;SDS011;73666;51.304;5.776;2023-10-31T05:42:43;8.82;;;4.20;;
83684;SDS011;73666;51.304;5.776;2023-10-31T05:47:43;9.65;;;5.22;;
83684;SDS011;73666;51.304;5.776;2023-10-31T05:52:44;7.45;;;4.53;;
83684;SDS011;73666;51.304;5.776;2023-10-31T05:57:45;6.53;;;4.80;;
83684;SDS011;73666;51.304;5.776;2023-10-31T06:02:45;8.02;;;4.35;;
83684;SDS011;73666;51.304;5.776;2023-10-31T06:07:46;6.90;;;4.05;;
83684;SDS011;73666;51.304;5.776;2023-10-31T06:12:48;7.70;;;4.88;;
83684;SDS011;73666;51.304;5.776;2023-10-31T06:17:48;7.90;;;4.28;;
83684;SDS011;73666;51.304;5.776;2023-10-31T06:22:49;8.20;;;4.85;;
83684;SDS011;73666;51.304;5.776;2023-10-31T06:27:50;10.15;;;4.75;;
83684;SDS011;73666;51.304;5.776;2023-10-31T06:32:51;9.82;;;5.90;;
83684;SDS011;73666;51.304;5.776;2023-10-31T06:37:54;8.70;;;4.93;;
83684;SDS011;73666;51.304;5.776;2023-10-31T06:42:56;8.30;;;4.93;;
83684;SDS011;73666;51.304;5.776;2023-10-31T06:47:57;7.97;;;4.50;;
83684;SDS011;73666;51.304;5.776;2023-10-31T06:52:58;7.78;;;4.63;;
83684;SDS011;73666;51.304;5.776;2023-10-31T06:57:59;8.13;;;3.72;;
83684;SDS011;73666;51.304;5.776;2023-10-31T07:02:59;8.38;;;4.55;;
83684;SDS011;73666;51.304;5.776;2023-10-31T07:08:05;5.97;;;4.07;;
83684;SDS011;73666;51.304;5.776;2023-10-31T07:13:06;7.40;;;4.90;;
83684;SDS011;73666;51.304;5.776;2023-10-31T07:18:06;6.65;;;4.20;;
83684;SDS011;73666;51.304;5.776;2023-10-31T07:23:07;8.40;;;4.05;;
83684;SDS011;73666;51.304;5.776;2023-10-31T07:28:09;6.30;;;4.05;;
83684;SDS011;73666;51.304;5.776;2023-10-31T07:33:10;9.98;;;4.63;;
83684;SDS011;73666;51.304;5.776;2023-10-31T07:38:10;7.95;;;4.15;;
83684;SDS011;73666;51.304;5.776;2023-10-31T07:43:11;7.28;;;3.80;;
83684;SDS011;73666;51.304;5.776;2023-10-31T07:48:12;5.78;;;4.20;;
83684;SDS011;73666;51.304;5.776;2023-10-31T07:53:13;8.20;;;4.72;;
83684;SDS011;73666;51.304;5.776;2023-10-31T07:58:14;9.68;;;4.82;;
83684;SDS011;73666;51.304;5.776;2023-10-31T08:03:15;8.65;;;4.97;;
83684;SDS011;73666;51.304;5.776;2023-10-31T08:08:16;9.20;;;4.53;;
83684;SDS011;73666;51.304;5.776;2023-10-31T08:13:17;10.70;;;4.68;;
83684;SDS011;73666;51.304;5.776;2023-10-31T08:18:19;7.43;;;4.45;;
83684;SDS011;73666;51.304;5.776;2023-10-31T08:23:19;9.25;;;5.00;;
83684;SDS011;73666;51.304;5.776;2023-10-31T08:28:23;10.43;;;4.70;;
83684;SDS011;73666;51.304;5.776;2023-10-31T08:33:24;10.02;;;5.63;;
83684;SDS011;73666;51.304;5.776;2023-10-31T08:38:25;7.95;;;4.68;;
83684;SDS011;73666;51.304;5.776;2023-10-31T08:43:28;8.85;;;4.50;;
83684;SDS011;73666;51.304;5.776;2023-10-31T08:48:29;6.85;;;4.10;;
83684;SDS011;73666;51.304;5.776;2023-10-31T08:53:30;10.00;;;5.35;;
83684;SDS011;73666;51.304;5.776;2023-10-31T08:58:30;8.68;;;5.10;;
83684;SDS011;73666;51.304;5.776;2023-10-31T09:03:31;8.98;;;5.00;;
83684;SDS011;73666;51.304;5.776;2023-10-31T09:08:32;8.27;;;5.38;;
83684;SDS011;73666;51.304;5.776;2023-10-31T09:13:34;6.65;;;4.50;;
83684;SDS011;73666;51.304;5.776;2023-10-31T09:18:34;7.03;;;3.58;;
83684;SDS011;73666;51.304;5.776;2023-10-31T09:23:35;5.70;;;4.28;;
83684;SDS011;73666;51.304;5.776;2023-10-31T09:28:36;5.68;;;3.75;;
83684;SDS011;73666;51.304;5.776;2023-10-31T09:33:39;5.90;;;4.40;;
83684;SDS011;73666;51.304;5.776;2023-10-31T09:38:40;7.30;;;4.78;;
83684;SDS011;73666;51.304;5.776;2023-10-31T09:43:40;5.10;;;3.80;;
83684;SDS011;73666;51.304;5.776;2023-10-31T09:48:42;6.25;;;3.78;;
83684;SDS011;73666;51.304;5.776;2023-10-31T09:53:44;6.93;;;3.75;;
83684;SDS011;73666;51.304;5.776;2023-10-31T09:58:46;5.07;;;3.78;;
83684;SDS011;73666;51.304;5.776;2023-10-31T10:03:47;7.22;;;3.72;;
83684;SDS011;73666;51.304;5.776;2023-10-31T10:08:48;5.75;;;3.70;;
83684;SDS011;73666;51.304;5.776;2023-10-31T10:13:51;5.28;;;4.00;;
83684;SDS011;73666;51.304;5.776;2023-10-31T10:18:53;9.80;;;3.95;;
83684;SDS011;73666;51.304;5.776;2023-10-31T10:23:57;5.32;;;3.55;;
83684;SDS011;73666;51.304;5.776;2023-10-31T10:28:57;6.50;;;3.08;;
83684;SDS011;73666;51.304;5.776;2023-10-31T10:33:58;6.45;;;3.45;;
83684;SDS011;73666;51.304;5.776;2023-10-31T10:39:01;5.22;;;3.10;;
83684;SDS011;73666;51.304;5.776;2023-10-31T10:44:06;3.38;;;2.63;;
83684;SDS011;73666;51.304;5.776;2023-10-31T10:49:07;3.97;;;2.92;;
83684;SDS011;73666;51.304;5.776;2023-10-31T10:54:11;4.80;;;2.70;;
83684;SDS011;73666;51.304;5.776;2023-10-31T10:59:21;3.88;;;2.40;;
83684;SDS011;73666;51.304;5.776;2023-10-31T11:04:34;2.97;;;2.30;;
83684;SDS011;73666;51.304;5.776;2023-10-31T11:09:36;3.13;;;2.33;;
83684;SDS011;73666;51.304;5.776;2023-10-31T11:14:38;5.18;;;1.92;;
83684;SDS011;73666;51.304;5.776;2023-10-31T11:19:40;2.58;;;1.65;;
83684;SDS011;73666;51.304;5.776;2023-10-31T11:24:41;3.35;;;1.80;;
83684;SDS011;73666;51.304;5.776;2023-10-31T11:29:42;1.58;;;1.33;;
83684;SDS011;73666;51.304;5.776;2023-10-31T11:34:43;1.48;;;1.38;;
83684;SDS011;73666;51.304;5.776;2023-10-31T11:40:08;2.53;;;1.88;;
83684;SDS011;73666;51.304;5.776;2023-10-31T11:45:24;5.82;;;1.80;;
83684;SDS011;73666;51.304;5.776;2023-10-31T11:50:29;3.50;;;1.95;;
83684;SDS011;73666;51.304;5.776;2023-10-31T11:55:31;5.10;;;1.90;;
83684;SDS011;73666;51.304;5.776;2023-10-31T12:00:36;4.38;;;1.80;;
83684;SDS011;73666;51.304;5.776;2023-10-31T12:05:37;2.97;;;1.60;;
83684;SDS011;73666;51.304;5.776;2023-10-31T12:10:38;2.58;;;1.70;;
83684;SDS011;73666;51.304;5.776;2023-10-31T12:15:50;2.50;;;1.73;;
83684;SDS011;73666;51.304;5.776;2023-10-31T12:20:52;1.65;;;1.40;;
83684;SDS011;73666;51.304;5.776;2023-10-31T12:25:53;3.17;;;1.38;;
83684;SDS011;73666;51.304;5.776;2023-10-31T12:30:55;5.78;;;1.80;;
83684;SDS011;73666;51.304;5.776;2023-10-31T12:35:58;2.88;;;1.50;;
83684;SDS011;73666;51.304;5.776;2023-10-31T12:40:59;2.05;;;1.40;;
83684;SDS011;73666;51.304;5.776;2023-10-31T12:46:23;1.45;;;1.10;;
83684;SDS011;73666;51.304;5.776;2023-10-31T12:51:25;4.15;;;1.40;;
83684;SDS011;73666;51.304;5.776;2023-10-31T12:56:37;3.90;;;1.30;;
83684;SDS011;73666;51.304;5.776;2023-10-31T13:01:42;3.47;;;1.05;;
83684;SDS011;73666;51.304;5.776;2023-10-31T13:11:56;1.98;;;1.10;;
83684;SDS011;73666;51.304;5.776;2023-10-31T13:17:00;1.33;;;1.17;;
83684;SDS011;73666;51.304;5.776;2023-10-31T13:22:02;4.82;;;1.45;;
83684;SDS011;73666;51.304;5.776;2023-10-31T13:27:03;4.28;;;1.23;;
83684;SDS011;73666;51.304;5.776;2023-10-31T13:32:04;4.15;;;0.98;;
83684;SDS011;73666;51.304;5.776;2023-10-31T13:37:05;1.85;;;1.30;;
83684;SDS011;73666;51.304;5.776;2023-10-31T13:42:06;2.55;;;0.93;;
83684;SDS011;73666;51.304;5.776;2023-10-31T13:47:07;1.10;;;1.00;;
83684;SDS011;73666;51.304;5.776;2023-10-31T13:52:08;1.95;;;1.08;;
83684;SDS011;73666;51.304;5.776;2023-10-31T13:57:09;3.35;;;2.28;;
83684;SDS011;73666;51.304;5.776;2023-10-31T14:02:09;2.97;;;1.08;;
83684;SDS011;73666;51.304;5.776;2023-10-31T14:07:11;3.15;;;1.17;;
83684;SDS011;73666;51.304;5.776;2023-10-31T14:12:20;2.15;;;1.27;;
83684;SDS011;73666;51.304;5.776;2023-10-31T14:17:21;1.73;;;0.93;;
83684;SDS011;73666;51.304;5.776;2023-10-31T14:22:23;9.32;;;0.88;;
83684;SDS011;73666;51.304;5.776;2023-10-31T14:27:23;3.03;;;1.13;;
83684;SDS011;73666;51.304;5.776;2023-10-31T14:32:24;4.63;;;1.20;;
83684;SDS011;73666;51.304;5.776;2023-10-31T14:37:25;4.45;;;1.15;;
83684;SDS011;73666;51.304;5.776;2023-10-31T14:42:31;2.10;;;1.20;;
83684;SDS011;73666;51.304;5.776;2023-10-31T14:47:31;4.97;;;2.15;;
83684;SDS011;73666;51.304;5.776;2023-10-31T14:52:33;6.22;;;2.40;;
83684;SDS011;73666;51.304;5.776;2023-10-31T14:57:33;6.90;;;2.03;;
83684;SDS011;73666;51.304;5.776;2023-10-31T15:07:35;3.17;;;2.03;;
83684;SDS011;73666;51.304;5.776;2023-10-31T15:12:37;2.15;;;1.80;;
83684;SDS011;73666;51.304;5.776;2023-10-31T15:17:38;5.72;;;2.13;;
83684;SDS011;73666;51.304;5.776;2023-10-31T15:22:39;2.85;;;1.75;;
83684;SDS011;73666;51.304;5.776;2023-10-31T15:27:40;1.80;;;1.70;;
83684;SDS011;73666;51.304;5.776;2023-10-31T15:32:41;4.13;;;1.88;;
83684;SDS011;73666;51.304;5.776;2023-10-31T15:37:42;4.63;;;1.75;;
83684;SDS011;73666;51.304;5.776;2023-10-31T15:42:44;3.88;;;1.90;;
83684;SDS011;73666;51.304;5.776;2023-10-31T15:47:44;4.10;;;2.03;;
83684;SDS011;73666;51.304;5.776;2023-10-31T15:52:45;2.55;;;1.45;;
83684;SDS011;73666;51.304;5.776;2023-10-31T15:57:46;5.18;;;2.80;;
83684;SDS011;73666;51.304;5.776;2023-10-31T16:02:47;4.47;;;1.65;;
83684;SDS011;73666;51.304;5.776;2023-10-31T16:07:48;4.13;;;1.83;;
83684;SDS011;73666;51.304;5.776;2023-10-31T16:12:49;3.10;;;1.58;;
83684;SDS011;73666;51.304;5.776;2023-10-31T16:17:49;5.63;;;2.70;;
83684;SDS011;73666;51.304;5.776;2023-10-31T16:22:50;2.20;;;1.90;;
83684;SDS011;73666;51.304;5.776;2023-10-31T16:27:51;2.42;;;1.80;;
83684;SDS011;73666;51.304;5.776;2023-10-31T16:32:52;2.03;;;1.33;;
83684;SDS011;73666;51.304;5.776;2023-10-31T16:37:52;2.30;;;1.38;;
83684;SDS011;73666;51.304;5.776;2023-10-31T16:47:56;2.65;;;1.70;;
83684;SDS011;73666;51.304;5.776;2023-10-31T16:52:56;1.63;;;1.30;;
83684;SDS011;73666;51.304;5.776;2023-10-31T16:57:57;3.92;;;1.80;;
83684;SDS011;73666;51.304;5.776;2023-10-31T17:02:58;2.45;;;1.95;;
83684;SDS011;73666;51.304;5.776;2023-10-31T17:07:59;4.45;;;2.88;;
83684;SDS011;73666;51.304;5.776;2023-10-31T17:12:59;3.55;;;1.92;;
83684;SDS011;73666;51.304;5.776;2023-10-31T17:18:00;5.30;;;1.50;;
83684;SDS011;73666;51.304;5.776;2023-10-31T17:23:01;1.45;;;1.30;;
83684;SDS011;73666;51.304;5.776;2023-10-31T17:28:05;2.28;;;1.80;;
83684;SDS011;73666;51.304;5.776;2023-10-31T17:33:06;2.67;;;1.90;;
83684;SDS011;73666;51.304;5.776;2023-10-31T17:38:07;2.85;;;2.15;;
83684;SDS011;73666;51.304;5.776;2023-10-31T17:43:08;3.08;;;1.63;;
83684;SDS011;73666;51.304;5.776;2023-10-31T17:48:09;5.93;;;2.00;;
83684;SDS011;73666;51.304;5.776;2023-10-31T17:53:09;4.35;;;2.08;;
83684;SDS011;73666;51.304;5.776;2023-10-31T17:58:11;3.15;;;1.90;;
83684;SDS011;73666;51.304;5.776;2023-10-31T18:03:11;4.57;;;1.92;;
83684;SDS011;73666;51.304;5.776;2023-10-31T18:08:13;2.78;;;1.70;;
83684;SDS011;73666;51.304;5.776;2023-10-31T18:13:14;4.78;;;2.65;;
83684;SDS011;73666;51.304;5.776;2023-10-31T18:18:19;3.58;;;2.03;;
83684;SDS011;73666;51.304;5.776;2023-10-31T18:23:20;3.83;;;1.98;;
83684;SDS011;73666;51.304;5.776;2023-10-31T18:28:20;3.45;;;2.00;;
83684;SDS011;73666;51.304;5.776;2023-10-31T18:33:22;2.75;;;1.80;;
83684;SDS011;73666;51.304;5.776;2023-10-31T18:38:23;4.55;;;2.33;;
83684;SDS011;73666;51.304;5.776;2023-10-31T18:43:24;4.00;;;2.08;;
83684;SDS011;73666;51.304;5.776;2023-10-31T18:48:24;3.50;;;2.40;;
83684;SDS011;73666;51.304;5.776;2023-10-31T18:53:25;5.40;;;2.22;;
83684;SDS011;73666;51.304;5.776;2023-10-31T18:58:26;4.57;;;1.90;;
83684;SDS011;73666;51.304;5.776;2023-10-31T19:03:27;3.72;;;2.25;;
83684;SDS011;73666;51.304;5.776;2023-10-31T19:08:27;6.20;;;2.13;;
83684;SDS011;73666;51.304;5.776;2023-10-31T19:13:29;4.40;;;1.90;;
83684;SDS011;73666;51.304;5.776;2023-10-31T19:18:29;5.38;;;2.63;;
83684;SDS011;73666;51.304;5.776;2023-10-31T19:23:30;4.65;;;2.15;;
83684;SDS011;73666;51.304;5.776;2023-10-31T19:28:31;4.43;;;2.35;;
83684;SDS011;73666;51.304;5.776;2023-10-31T19:33:31;2.88;;;2.33;;
83684;SDS011;73666;51.304;5.776;2023-10-31T19:38:32;4.00;;;1.88;;
83684;SDS011;73666;51.304;5.776;2023-10-31T19:43:33;4.47;;;2.47;;
83684;SDS011;73666;51.304;5.776;2023-10-31T19:48:35;6.55;;;2.45;;
83684;SDS011;73666;51.304;5.776;2023-10-31T19:53:37;6.65;;;2.60;;
83684;SDS011;73666;51.304;5.776;2023-10-31T19:58:38;3.88;;;2.20;;
83684;SDS011;73666;51.304;5.776;2023-10-31T20:03:38;5.53;;;2.95;;
83684;SDS011;73666;51.304;5.776;2023-10-31T20:08:40;4.85;;;2.63;;
83684;SDS011;73666;51.304;5.776;2023-10-31T20:13:41;5.75;;;2.28;;
83684;SDS011;73666;51.304;5.776;2023-10-31T20:18:42;2.95;;;2.42;;
83684;SDS011;73666;51.304;5.776;2023-10-31T20:23:42;3.28;;;2.15;;
83684;SDS011;73666;51.304;5.776;2023-10-31T20:28:43;12.57;;;2.92;;
83684;SDS011;73666;51.304;5.776;2023-10-31T20:33:44;7.88;;;2.58;;
83684;SDS011;73666;51.304;5.776;2023-10-31T20:38:45;5.28;;;2.92;;
83684;SDS011;73666;51.304;5.776;2023-10-31T20:43:45;6.43;;;2.50;;
83684;SDS011;73666;51.304;5.776;2023-10-31T20:48:49;8.05;;;3.63;;
83684;SDS011;73666;51.304;5.776;2023-10-31T20:53:50;8.63;;;2.85;;
83684;SDS011;73666;51.304;5.776;2023-10-31T20:58:51;4.13;;;2.30;;
83684;SDS011;73666;51.304;5.776;2023-10-31T21:03:52;10.20;;;4.78;;
83684;SDS011;73666;51.304;5.776;2023-10-31T21:08:52;7.57;;;3.03;;
83684;SDS011;73666;51.304;5.776;2023-10-31T21:18:57;7.72;;;2.53;;
83684;SDS011;73666;51.304;5.776;2023-10-31T21:23:58;3.95;;;2.10;;
83684;SDS011;73666;51.304;5.776;2023-10-31T21:29:00;3.83;;;1.98;;
83684;SDS011;73666;51.304;5.776;2023-10-31T21:34:01;7.78;;;1.85;;
83684;SDS011;73666;51.304;5.776;2023-10-31T21:39:01;4.47;;;1.90;;
83684;SDS011;73666;51.304;5.776;2023-10-31T21:44:02;3.80;;;1.65;;
83684;SDS011;73666;51.304;5.776;2023-10-31T21:49:03;4.30;;;1.48;;
83684;SDS011;73666;51.304;5.776;2023-10-31T21:54:07;5.90;;;1.55;;
83684;SDS011;73666;51.304;5.776;2023-10-31T21:59:08;3.22;;;1.58;;
83684;SDS011;73666;51.304;5.776;2023-10-31T22:09:11;2.42;;;1.40;;
83684;SDS011;73666;51.304;5.776;2023-10-31T22:14:11;6.15;;;1.45;;
83684;SDS011;73666;51.304;5.776;2023-10-31T22:19:12;4.07;;;1.67;;
83684;SDS011;73666;51.304;5.776;2023-10-31T22:24:13;3.30;;;1.23;;
83684;SDS011;73666;51.304;5.776;2023-10-31T22:29:15;3.63;;;1.45;;
83684;SDS011;73666;51.304;5.776;2023-10-31T22:34:17;3.30;;;1.30;;
83684;SDS011;73666;51.304;5.776;2023-10-31T22:39:20;2.83;;;1.67;;
83684;SDS011;73666;51.304;5.776;2023-10-31T22:44:21;6.03;;;1.75;;
83684;SDS011;73666;51.304;5.776;2023-10-31T22:49:21;2.97;;;1.00;;
83684;SDS011;73666;51.304;5.776;2023-10-31T22:54:24;2.65;;;1.20;;
83684;SDS011;73666;51.304;5.776;2023-10-31T22:59:24;2.45;;;1.55;;
83684;SDS011;73666;51.304;5.776;2023-10-31T23:04:26;5.15;;;1.17;;
83684;SDS011;73666;51.304;5.776;2023-10-31T23:09:28;4.57;;;1.20;;
83684;SDS011;73666;51.304;5.776;2023-10-31T23:14:29;7.97;;;1.30;;
83684;SDS011;73666;51.304;5.776;2023-10-31T23:19:29;2.47;;;1.20;;
83684;SDS011;73666;51.304;5.776;2023-10-31T23:24:30;5.35;;;1.30;;
83684;SDS011;73666;51.304;5.776;2023-10-31T23:29:31;3.40;;;1.35;;
83684;SDS011;73666;51.304;5.776;2023-10-31T23:34:31;3.53;;;1.52;;
83684;SDS011;73666;51.304;5.776;2023-10-31T23:39:32;3.80;;;1.00;;
83684;SDS011;73666;51.304;5.776;2023-10-31T23:44:33;2.60;;;1.50;;
83684;SDS011;73666;51.304;5.776;2023-10-31T23:49:34;3.83;;;1.20;;
83684;SDS011;73666;51.304;5.776;2023-10-31T23:54:35;2.15;;;0.90;;
83684;SDS011;73666;51.304;5.776;2023-10-31T23:59:35;1.35;;;1.10;;
